createdAt,value
2019-01-24T00:01:42.576Z,84.40
2019-01-24T00:04:16.751Z,88.30
2019-01-24T00:06:44.771Z,93.33
2019-01-24T00:09:54.660Z,94.73
2019-01-24T00:12:25.010Z,86.07
2019-01-24T00:17:51.162Z,88.87
2019-01-24T00:20:22.753Z,97.33
2019-01-24T00:22:53.346Z,101.73
2019-01-24T00:25:23.601Z,101.97
2019-01-24T00:28:12.800Z,100.23
2019-01-24T00:31:04.129Z,92.83
2019-01-24T00:33:34.313Z,96.97
2019-01-24T00:36:24.264Z,88.50
2019-01-24T00:39:15.260Z,94.40
2019-01-24T00:41:46.405Z,90.97
2019-01-24T00:47:29.996Z,94.23
2019-01-24T00:50:19.533Z,83.73
2019-01-24T00:52:49.829Z,92.73
2019-01-24T00:55:39.274Z,96.23
2019-01-24T00:58:28.546Z,93.90
2019-01-24T01:01:18.032Z,87.87
2019-01-24T01:03:48.285Z,96.03
2019-01-24T01:06:18.534Z,89.10
2019-01-24T01:22:39.608Z,90.37
2019-01-24T01:25:28.825Z,102.67
2019-01-24T01:34:20.302Z,87.83
2019-01-24T01:42:57.543Z,97.67
2019-01-24T01:45:46.943Z,99.87
2019-01-24T01:48:36.689Z,85.97
2019-01-24T01:51:26.373Z,109.20
2019-01-24T01:54:15.605Z,99.17
2019-01-24T01:56:45.960Z,97.10
2019-01-24T01:59:16.456Z,96.73
2019-01-24T02:01:46.612Z,96.10
2019-01-24T02:04:16.799Z,89.77
2019-01-24T02:06:47.060Z,94.97
2019-01-24T02:09:17.329Z,87.70
2019-01-24T02:11:47.649Z,100.70
2019-01-24T02:14:18.094Z,98.77
2019-01-24T02:16:48.435Z,107.70
2019-01-24T02:19:18.607Z,101.77
2019-01-24T02:21:50.235Z,101.40
2019-01-24T02:24:20.417Z,99.60
2019-01-24T02:27:09.755Z,96.07
2019-01-24T02:29:40.297Z,96.37
2019-01-24T02:32:29.604Z,97.20
2019-01-24T02:34:59.810Z,97.30
2019-01-24T02:37:49.050Z,99.93
2019-01-24T02:40:19.558Z,99.43
2019-01-24T02:43:09.140Z,100.87
2019-01-24T02:45:39.328Z,98.53
2019-01-24T02:48:09.752Z,101.50
2019-01-24T02:50:40.223Z,98.77
2019-01-24T02:53:29.497Z,98.93
2019-01-24T02:56:19.040Z,97.93
2019-01-24T02:58:49.358Z,100.77
2019-01-24T03:01:19.550Z,105.83
2019-01-24T03:04:08.822Z,95.83
2019-01-24T03:06:58.056Z,110.93
2019-01-24T03:09:48.173Z,94.63
2019-01-24T03:12:37.390Z,95.70
2019-01-24T03:15:08.558Z,102.03
2019-01-24T03:17:39.015Z,105.93
2019-01-24T03:20:29.941Z,101.97
2019-01-24T03:23:00.187Z,98.33
2019-01-24T03:25:49.486Z,105.70
2019-01-24T03:28:19.720Z,91.70
2019-01-24T03:30:50.008Z,93.03
2019-01-24T03:33:20.979Z,106.97
2019-01-24T03:35:51.219Z,100.60
2019-01-24T03:38:21.404Z,98.37
2019-01-24T03:41:10.658Z,97.03
2019-01-24T03:43:40.833Z,113.07
2019-01-24T03:46:30.092Z,92.20
2019-01-24T03:49:19.263Z,104.60
2019-01-24T03:52:08.831Z,100.10
2019-01-24T03:54:39.076Z,86.87
2019-01-24T03:57:28.595Z,87.70
2019-01-24T04:00:21.813Z,96.87
2019-01-24T04:03:11.363Z,89.33
2019-01-24T04:05:41.587Z,89.53
2019-01-24T04:08:11.909Z,91.17
2019-01-24T04:11:01.262Z,87.47
2019-01-24T04:13:31.521Z,97.43
2019-01-24T04:16:12.958Z,91.00
2019-01-24T04:18:54.713Z,88.93
2019-01-24T04:21:25.004Z,92.93
2019-01-24T04:23:55.225Z,94.60
2019-01-24T04:26:44.530Z,95.93
2019-01-24T04:29:14.716Z,85.63
2019-01-24T04:31:44.967Z,93.37
2019-01-24T04:34:27.897Z,91.80
2019-01-24T04:39:45.210Z,82.27
2019-01-24T04:42:15.445Z,88.03
2019-01-24T04:45:05.977Z,99.60
2019-01-24T04:47:55.376Z,84.40
2019-01-24T04:50:25.817Z,87.20
2019-01-24T04:52:56.453Z,77.57
2019-01-24T04:55:26.695Z,82.07
2019-01-24T04:58:15.904Z,88.87
2019-01-24T05:00:46.462Z,91.50
2019-01-24T05:06:25.039Z,91.23
2019-01-24T05:09:14.295Z,94.73
2019-01-24T05:11:44.537Z,82.33
2019-01-24T05:14:15.098Z,90.00
2019-01-24T05:16:45.345Z,91.30
2019-01-24T05:19:15.564Z,86.87
2019-01-24T05:21:48.400Z,88.87
2019-01-24T05:24:40.200Z,88.90
2019-01-24T05:27:30.813Z,85.67
2019-01-24T05:30:24.796Z,91.30
2019-01-24T05:33:20.538Z,78.80
2019-01-24T05:35:51.673Z,93.10
2019-01-24T05:38:22.205Z,96.50
2019-01-24T05:40:53.601Z,90.70
2019-01-24T05:43:43.139Z,89.67
2019-01-24T05:46:32.980Z,85.67
2019-01-24T05:49:22.535Z,97.20
2019-01-24T05:51:52.889Z,87.33
2019-01-24T05:54:42.466Z,92.77
2019-01-24T05:57:31.777Z,83.57
2019-01-24T06:00:02.059Z,101.27
2019-01-24T06:02:43.677Z,95.80
2019-01-24T06:08:08.817Z,84.30
2019-01-24T06:10:56.130Z,85.30
2019-01-24T06:13:16.156Z,90.97
2019-01-24T06:15:46.737Z,103.90
2019-01-24T06:18:17.677Z,98.47
2019-01-24T06:20:48.450Z,91.93
2019-01-24T06:23:19.002Z,94.37
2019-01-24T06:25:50.027Z,98.80
2019-01-24T06:28:20.747Z,88.33
2019-01-24T06:31:10.120Z,95.13
2019-01-24T06:33:40.406Z,88.07
2019-01-24T06:36:10.937Z,91.40
2019-01-24T06:39:00.174Z,83.27
2019-01-24T06:41:50.899Z,103.53
2019-01-24T06:44:40.554Z,91.00
2019-01-24T06:47:22.011Z,87.97
2019-01-24T06:50:05.129Z,92.93
2019-01-24T06:55:29.678Z,90.20
2019-01-24T06:58:00.267Z,91.27
2019-01-24T07:00:30.501Z,91.80
2019-01-24T07:03:00.892Z,97.00
2019-01-24T07:05:31.133Z,89.57
2019-01-24T07:08:20.365Z,88.57
2019-01-24T07:11:09.584Z,86.37
2019-01-24T07:13:40.142Z,84.97
2019-01-24T07:16:21.492Z,98.97
2019-01-24T07:19:02.999Z,94.73
2019-01-24T07:21:35.288Z,85.80
2019-01-24T07:24:26.067Z,87.70
2019-01-24T07:26:56.382Z,84.50
2019-01-24T07:29:28.355Z,93.97
2019-01-24T07:32:41.560Z,98.00
2019-01-24T07:35:14.059Z,97.57
2019-01-24T07:38:03.664Z,102.23
2019-01-24T07:40:33.938Z,90.97
2019-01-24T07:43:25.663Z,97.47
2019-01-24T07:46:14.938Z,97.83
2019-01-24T07:49:06.274Z,89.17
2019-01-24T07:51:55.782Z,88.77
2019-01-24T07:54:45.048Z,86.63
2019-01-24T07:57:15.377Z,97.13
2019-01-24T07:59:47.365Z,86.03
2019-01-24T08:02:36.575Z,100.90
2019-01-24T08:05:10.582Z,93.77
2019-01-24T08:08:00.363Z,86.77
2019-01-24T08:10:33.078Z,93.93
2019-01-24T08:13:03.371Z,91.73
2019-01-24T08:15:53.098Z,89.40
2019-01-24T08:18:23.554Z,90.30
2019-01-24T08:21:12.747Z,98.07
2019-01-24T08:23:43.023Z,97.90
2019-01-24T08:26:13.326Z,88.47
2019-01-24T08:31:43.640Z,93.33
2019-01-24T08:34:13.945Z,96.00
2019-01-24T08:36:46.843Z,91.60
2019-01-24T08:39:36.106Z,90.17
2019-01-24T08:42:25.614Z,86.47
2019-01-24T08:45:06.997Z,96.20
2019-01-24T08:47:37.416Z,84.97
2019-01-24T08:50:28.060Z,100.83
2019-01-24T08:53:17.336Z,79.40
2019-01-24T08:55:49.401Z,92.83
2019-01-24T08:58:42.095Z,88.20
2019-01-24T09:01:12.542Z,83.20
2019-01-24T09:06:53.164Z,84.80
2019-01-24T09:09:26.147Z,84.27
2019-01-24T09:11:58.698Z,93.17
2019-01-24T09:14:28.911Z,91.93
2019-01-24T09:16:59.341Z,83.90
2019-01-24T09:19:29.549Z,79.37
2019-01-24T09:22:00.846Z,93.97
2019-01-24T09:25:10.692Z,82.07
2019-01-24T09:28:20.246Z,80.17
2019-01-24T09:31:18.141Z,72.17
2019-01-24T09:33:48.354Z,77.03
2019-01-24T09:36:19.236Z,80.77
2019-01-24T09:38:53.916Z,75.23
2019-01-24T09:41:43.174Z,82.60
2019-01-24T09:44:13.497Z,76.03
2019-01-24T09:47:05.544Z,72.07
2019-01-24T09:49:59.902Z,75.40
2019-01-24T09:52:51.765Z,73.07
2019-01-24T09:55:22.190Z,73.07
2019-01-24T09:57:52.379Z,74.57
2019-01-24T10:00:41.765Z,66.23
2019-01-24T10:03:33.907Z,77.70
2019-01-24T10:06:04.192Z,71.93
2019-01-24T10:08:37.918Z,73.47
2019-01-24T10:11:08.264Z,74.50
2019-01-24T10:13:38.527Z,66.00
2019-01-24T10:16:10.357Z,71.17
2019-01-24T10:18:40.572Z,74.47
2019-01-24T10:21:34.336Z,67.73
2019-01-24T10:24:04.666Z,65.53
2019-01-24T10:26:53.953Z,75.07
2019-01-24T10:29:36.098Z,65.93
2019-01-24T10:32:07.309Z,75.33
2019-01-24T10:34:38.854Z,70.67
2019-01-24T10:37:30.583Z,75.67
2019-01-24T10:40:21.353Z,72.00
2019-01-24T10:43:13.173Z,71.40
2019-01-24T10:45:43.446Z,71.07
2019-01-24T10:48:14.102Z,80.30
2019-01-24T10:51:03.496Z,72.30
2019-01-24T10:53:55.991Z,74.87
2019-01-24T10:56:45.312Z,74.97
2019-01-24T10:59:39.311Z,75.67
2019-01-24T11:05:10.685Z,71.20
2019-01-24T11:07:41.446Z,70.57
2019-01-24T11:13:10.477Z,73.70
2019-01-24T11:15:41.001Z,79.17
2019-01-24T11:18:30.340Z,74.87
2019-01-24T11:21:01.222Z,68.47
2019-01-24T11:23:31.940Z,71.50
2019-01-24T11:26:02.266Z,72.83
2019-01-24T11:31:30.700Z,76.70
2019-01-24T11:34:06.693Z,75.43
2019-01-24T11:36:59.390Z,81.00
2019-01-24T11:39:52.277Z,74.23
2019-01-24T11:42:30.931Z,72.23
2019-01-24T11:45:21.798Z,74.47
2019-01-24T11:48:11.911Z,77.73
2019-01-24T11:51:09.360Z,74.63
2019-01-24T11:54:13.700Z,73.93
2019-01-24T11:56:36.130Z,65.80
2019-01-24T11:59:07.185Z,71.57
2019-01-24T12:01:59.401Z,75.90
2019-01-24T12:04:48.653Z,76.07
2019-01-24T12:17:14.322Z,72.10
2019-01-24T12:19:55.348Z,72.37
2019-01-24T12:25:54.571Z,77.47
2019-01-24T12:28:50.031Z,76.33
2019-01-24T12:31:22.510Z,69.23
2019-01-24T12:34:13.924Z,73.10
2019-01-24T12:36:44.240Z,73.63
2019-01-24T12:39:47.381Z,76.40
2019-01-24T12:45:52.946Z,79.37
2019-01-24T12:48:49.867Z,72.23
2019-01-24T12:54:43.120Z,74.07
2019-01-24T12:57:14.370Z,76.70
2019-01-24T12:59:48.740Z,80.13
2019-01-24T13:02:39.792Z,75.90
2019-01-24T13:05:31.823Z,77.30
2019-01-24T13:08:23.991Z,74.93
2019-01-24T13:10:57.341Z,74.60
2019-01-24T13:13:28.361Z,75.53
2019-01-24T13:16:36.949Z,85.50
2019-01-24T13:19:26.567Z,75.27
2019-01-24T13:22:16.306Z,85.57
2019-01-24T13:24:49.260Z,82.30
2019-01-24T13:27:41.055Z,79.97
2019-01-24T13:30:33.692Z,78.70
2019-01-24T13:39:17.982Z,71.30
2019-01-24T13:44:44.205Z,92.37
2019-01-24T13:48:05.272Z,84.10
2019-01-24T13:50:09.015Z,88.83
2019-01-24T13:53:00.238Z,82.13
2019-01-24T14:05:25.702Z,85.30
2019-01-24T14:07:56.434Z,89.23
2019-01-24T14:39:12.045Z,91.17
2019-01-24T14:42:15.751Z,76.37
2019-01-24T14:44:58.045Z,83.20
2019-01-24T14:47:30.565Z,88.60
2019-01-24T14:50:21.067Z,81.77
2019-01-24T14:52:53.130Z,77.87
2019-01-24T14:59:05.781Z,85.00
2019-01-24T15:01:36.681Z,85.87
2019-01-24T15:04:35.147Z,84.40
2019-01-24T15:07:05.826Z,78.37
2019-01-24T15:09:55.643Z,84.03
2019-01-24T15:12:45.007Z,79.97
2019-01-24T15:15:24.310Z,79.37
2019-01-24T15:17:54.701Z,95.60
2019-01-24T15:20:29.298Z,85.07
2019-01-24T15:23:06.343Z,88.37
2019-01-24T15:25:38.797Z,84.30
2019-01-24T15:28:28.317Z,87.40
2019-01-24T15:31:00.509Z,72.50
2019-01-24T15:33:32.526Z,81.43
2019-01-24T15:36:24.336Z,81.33
2019-01-24T15:38:55.120Z,87.23
2019-01-24T15:41:25.484Z,93.63
2019-01-24T15:44:18.014Z,90.80
2019-01-24T15:46:48.392Z,98.50
2019-01-24T15:52:47.901Z,87.27
2019-01-24T15:55:41.117Z,93.13
2019-01-24T15:58:30.833Z,87.47
2019-01-24T16:01:04.951Z,87.27
2019-01-24T16:03:35.315Z,91.23
2019-01-24T16:06:06.204Z,88.03
2019-01-24T16:08:57.262Z,90.10
2019-01-24T16:11:49.959Z,89.83
2019-01-24T16:14:26.070Z,90.17
2019-01-24T16:16:56.595Z,92.40
2019-01-24T16:19:30.443Z,92.33
2019-01-24T16:22:11.991Z,92.50
2019-01-24T16:24:45.357Z,89.83
2019-01-24T16:28:09.015Z,92.43
2019-01-24T16:30:46.310Z,92.07
2019-01-24T16:33:35.773Z,91.80
2019-01-24T16:36:06.307Z,90.67
2019-01-24T16:38:48.533Z,78.73
2019-01-24T16:41:22.068Z,88.37
2019-01-24T16:43:53.754Z,95.63
2019-01-24T16:46:43.213Z,91.13
2019-01-24T16:49:32.644Z,93.27
2019-01-24T16:52:26.351Z,86.50
2019-01-24T17:02:02.013Z,94.07
2019-01-24T17:04:32.586Z,88.53
2019-01-24T17:07:22.192Z,91.97
2019-01-24T17:10:12.666Z,90.33
2019-01-24T17:13:02.270Z,90.90
2019-01-24T17:15:33.577Z,80.90
2019-01-24T17:18:44.853Z,96.77
2019-01-24T17:21:34.313Z,89.23
2019-01-24T17:24:05.524Z,90.37
2019-01-24T17:29:46.872Z,101.73
2019-01-24T17:32:40.513Z,82.97
2019-01-24T17:35:30.105Z,99.87
2019-01-24T17:38:23.965Z,72.30
2019-01-24T17:40:54.248Z,89.10
2019-01-24T17:43:47.535Z,85.90
2019-01-24T17:46:17.903Z,81.73
2019-01-24T17:49:11.002Z,86.50
2019-01-24T17:52:02.472Z,82.20
2019-01-24T17:54:52.586Z,87.97
2019-01-24T17:57:22.935Z,92.27
2019-01-24T17:59:59.425Z,94.17
2019-01-24T18:02:50.123Z,81.50
2019-01-24T18:05:35.774Z,88.13
2019-01-24T18:07:56.251Z,89.63
2019-01-24T18:10:46.195Z,82.30
2019-01-24T18:13:21.251Z,96.77
2019-01-24T18:16:12.926Z,89.33
2019-01-24T18:19:33.662Z,92.00
2019-01-24T18:22:12.350Z,89.40
2019-01-24T18:25:38.224Z,91.40
2019-01-24T18:28:17.858Z,85.20
2019-01-24T18:34:27.038Z,87.70
2019-01-24T18:36:57.777Z,97.50
2019-01-24T18:39:31.270Z,100.17
2019-01-24T18:42:01.963Z,96.17
2019-01-24T18:44:54.749Z,96.70
2019-01-24T18:47:45.748Z,96.37
2019-01-24T18:50:25.156Z,90.77
2019-01-24T18:52:59.087Z,101.80
2019-01-24T18:55:50.535Z,95.10
2019-01-24T19:01:20.686Z,96.23
2019-01-24T19:03:56.551Z,93.33
2019-01-24T19:18:40.651Z,86.77
2019-01-24T19:27:32.329Z,77.73
2019-01-24T19:33:32.373Z,84.37
2019-01-24T19:36:16.756Z,80.63
2019-01-24T19:39:02.810Z,73.03
2019-01-24T19:44:05.275Z,81.33
2019-01-24T19:50:17.294Z,73.17
2019-01-24T19:53:08.439Z,75.23
2019-01-24T19:56:04.399Z,70.20
2019-01-24T19:58:37.216Z,79.60
2019-01-24T20:01:15.653Z,75.10
2019-01-24T20:07:20.240Z,70.77
2019-01-24T20:09:57.267Z,82.53
2019-01-24T20:12:37.807Z,68.53
2019-01-24T20:15:12.954Z,77.47
2019-01-24T20:18:09.050Z,81.10
2019-01-24T20:26:53.788Z,89.03
2019-01-24T20:29:45.009Z,71.43
2019-01-24T20:35:39.254Z,77.23
2019-01-24T20:38:47.935Z,66.23
2019-01-24T20:44:46.007Z,79.10
2019-01-24T20:47:17.851Z,74.93
2019-01-24T20:50:10.265Z,79.03
2019-01-24T20:52:42.150Z,70.97
2019-01-24T20:55:13.207Z,69.90
2019-01-24T20:57:44.140Z,74.23
2019-01-24T21:00:33.934Z,70.47
2019-01-24T21:03:04.615Z,73.50
2019-01-24T21:05:54.021Z,71.60
2019-01-24T21:08:45.372Z,74.27
2019-01-24T21:11:35.633Z,73.37
2019-01-24T21:14:25.121Z,73.13
2019-01-24T21:17:15.196Z,77.77
2019-01-24T21:19:48.492Z,72.93
2019-01-24T21:22:38.300Z,74.03
2019-01-24T21:25:27.688Z,71.13
2019-01-24T21:28:20.832Z,73.60
2019-01-24T21:31:12.383Z,70.23
2019-01-24T21:34:02.186Z,67.63
2019-01-24T21:36:53.865Z,73.07
2019-01-24T21:39:27.412Z,66.30
2019-01-24T21:42:00.146Z,70.23
2019-01-24T21:44:45.489Z,68.43
2019-01-24T21:47:24.303Z,71.57
2019-01-24T21:49:57.392Z,68.17
2019-01-24T21:52:27.661Z,70.27
2019-01-24T21:58:15.722Z,67.90
2019-01-24T22:01:05.672Z,63.87
2019-01-24T22:03:55.303Z,59.67
2019-01-24T22:06:29.652Z,67.70
2019-01-24T22:09:19.340Z,61.50
2019-01-24T22:15:04.489Z,65.03
2019-01-24T22:17:45.437Z,52.80
2019-01-24T22:20:16.411Z,59.20
2019-01-24T22:23:18.411Z,67.00
2019-01-24T22:25:51.049Z,58.07
2019-01-24T22:28:23.461Z,65.07
2019-01-24T22:31:12.798Z,57.53
2019-01-24T22:33:43.147Z,58.13
2019-01-24T22:36:15.281Z,65.83
2019-01-24T22:39:09.825Z,69.33
2019-01-24T22:41:59.563Z,60.40
2019-01-24T22:44:51.242Z,53.70
2019-01-24T22:47:42.238Z,57.23
2019-01-24T22:50:31.954Z,59.50
2019-01-24T22:53:21.266Z,57.23
2019-01-24T22:56:22.873Z,57.23
2019-01-24T22:59:28.512Z,60.33
2019-01-24T23:02:50.347Z,62.87
2019-01-24T23:05:27.944Z,65.97
2019-01-24T23:11:28.596Z,63.33
2019-01-24T23:14:36.817Z,60.00
2019-01-24T23:17:26.327Z,64.93
2019-01-24T23:20:36.070Z,58.77
2019-01-24T23:23:25.825Z,56.43
2019-01-24T23:26:35.728Z,53.60
2019-01-24T23:32:22.267Z,50.87
2019-01-24T23:35:13.888Z,57.43
2019-01-24T23:38:05.860Z,51.60
2019-01-24T23:43:32.840Z,55.03
2019-01-24T23:46:22.391Z,49.23
2019-01-24T23:49:15.049Z,51.70
2019-01-24T23:52:06.826Z,52.23
2019-01-24T23:54:56.392Z,46.30
2019-01-24T23:57:46.096Z,50.07
